createdAt,value
2019-02-19T00:00:11.739Z,12.97
2019-02-19T00:02:40.622Z,12.17
2019-02-19T00:05:09.499Z,11.93
2019-02-19T00:07:38.294Z,11.77
2019-02-19T00:10:08.667Z,12.33
2019-02-19T00:12:39.077Z,12.20
2019-02-19T00:15:08.653Z,11.30
2019-02-19T00:17:37.762Z,10.50
2019-02-19T00:20:06.908Z,11.27
2019-02-19T00:22:35.726Z,11.57
2019-02-19T00:25:05.678Z,11.10
2019-02-19T00:27:34.474Z,10.80
2019-02-19T00:30:03.662Z,11.40
2019-02-19T00:32:33.450Z,10.87
2019-02-19T00:35:02.219Z,11.70
2019-02-19T00:37:31.890Z,11.27
2019-02-19T00:40:00.724Z,11.83
2019-02-19T00:42:29.569Z,11.57
2019-02-19T00:44:58.888Z,11.00
2019-02-19T00:47:28.531Z,11.30
2019-02-19T00:49:57.337Z,10.87
2019-02-19T00:52:26.247Z,10.87
2019-02-19T00:54:55.309Z,10.23
2019-02-19T00:57:24.101Z,10.20
2019-02-19T00:59:52.885Z,10.50
2019-02-19T01:02:22.828Z,10.67
2019-02-19T01:04:53.502Z,10.20
2019-02-19T01:07:23.952Z,11.40
2019-02-19T01:09:52.719Z,10.27
2019-02-19T01:12:21.495Z,9.80
2019-02-19T01:14:50.288Z,10.80
2019-02-19T01:17:19.372Z,9.60
2019-02-19T01:19:48.502Z,10.03
2019-02-19T01:22:17.276Z,10.70
2019-02-19T01:24:46.079Z,10.60
2019-02-19T01:27:14.987Z,10.07
2019-02-19T01:29:44.600Z,10.83
2019-02-19T01:32:13.473Z,10.17
2019-02-19T01:34:42.352Z,10.07
2019-02-19T01:37:11.466Z,10.43
2019-02-19T01:39:40.335Z,11.47
2019-02-19T01:42:09.189Z,11.20
2019-02-19T01:44:38.088Z,10.50
2019-02-19T01:47:07.157Z,10.43
2019-02-19T01:49:36.140Z,9.90
2019-02-19T01:52:04.903Z,10.07
2019-02-19T01:54:35.340Z,9.97
2019-02-19T01:57:04.118Z,10.73
2019-02-19T01:59:32.916Z,10.40
2019-02-19T02:02:01.681Z,10.40
2019-02-19T02:04:30.494Z,10.97
2019-02-19T02:06:59.402Z,11.07
2019-02-19T02:09:29.335Z,11.07
2019-02-19T02:11:58.100Z,9.77
2019-02-19T02:14:26.892Z,10.67
2019-02-19T02:16:55.661Z,10.87
2019-02-19T02:19:24.989Z,10.70
2019-02-19T02:21:53.793Z,9.70
2019-02-19T02:24:22.914Z,10.57
2019-02-19T02:26:53.457Z,11.13
2019-02-19T02:29:22.456Z,10.17
2019-02-19T02:31:51.316Z,10.50
2019-02-19T02:34:20.154Z,10.27
2019-02-19T02:36:49.009Z,10.07
2019-02-19T02:39:17.864Z,10.40
2019-02-19T02:41:46.726Z,9.73
2019-02-19T02:44:15.576Z,9.80
2019-02-19T02:46:44.427Z,9.57
2019-02-19T02:49:13.257Z,8.80
2019-02-19T02:51:42.057Z,9.00
2019-02-19T02:54:10.939Z,9.67
2019-02-19T02:56:39.878Z,9.93
2019-02-19T02:59:08.640Z,8.60
2019-02-19T03:01:37.437Z,9.00
2019-02-19T03:04:06.264Z,8.30
2019-02-19T03:06:39.555Z,10.07
2019-02-19T03:09:08.352Z,8.63
2019-02-19T03:11:37.218Z,9.07
2019-02-19T03:14:05.999Z,8.83
2019-02-19T03:16:34.780Z,8.33
2019-02-19T03:19:03.564Z,8.63
2019-02-19T03:21:32.889Z,8.10
2019-02-19T03:24:01.644Z,8.83
2019-02-19T03:26:30.410Z,9.40
2019-02-19T03:28:59.211Z,9.80
2019-02-19T03:31:28.030Z,10.90
2019-02-19T03:33:56.895Z,9.80
2019-02-19T03:36:25.676Z,10.93
2019-02-19T03:38:54.555Z,9.77
2019-02-19T03:41:23.386Z,10.20
2019-02-19T03:43:52.162Z,9.43
2019-02-19T03:46:20.984Z,9.93
2019-02-19T03:48:49.812Z,10.30
2019-02-19T03:51:18.561Z,11.80
2019-02-19T03:53:47.373Z,11.63
2019-02-19T03:56:16.215Z,13.73
2019-02-19T03:58:45.019Z,17.80
2019-02-19T04:01:13.791Z,19.13
2019-02-19T04:03:42.564Z,22.57
2019-02-19T04:06:11.335Z,22.87
2019-02-19T04:08:40.146Z,22.73
2019-02-19T04:11:08.912Z,21.70
2019-02-19T04:13:37.718Z,20.83
2019-02-19T04:16:06.478Z,17.73
2019-02-19T04:18:35.300Z,18.63
2019-02-19T04:21:04.228Z,19.30
2019-02-19T04:23:33.022Z,20.27
2019-02-19T04:26:01.814Z,22.27
2019-02-19T04:28:30.607Z,21.43
2019-02-19T04:30:59.395Z,23.57
2019-02-19T04:33:28.171Z,22.63
2019-02-19T04:35:56.973Z,23.50
2019-02-19T04:38:25.855Z,22.93
2019-02-19T04:40:54.646Z,22.47
2019-02-19T04:43:23.433Z,21.93
2019-02-19T04:45:52.463Z,21.50
2019-02-19T04:48:21.248Z,23.60
2019-02-19T04:50:50.063Z,22.33
2019-02-19T04:53:18.807Z,21.97
2019-02-19T04:55:47.632Z,20.53
2019-02-19T04:58:16.424Z,22.00
2019-02-19T05:00:45.233Z,21.53
2019-02-19T05:03:13.995Z,21.73
2019-02-19T05:05:42.812Z,22.07
2019-02-19T05:08:11.577Z,20.97
2019-02-19T05:10:40.392Z,21.13
2019-02-19T05:13:09.265Z,21.50
2019-02-19T05:15:38.042Z,19.37
2019-02-19T05:18:06.823Z,20.40
2019-02-19T05:20:35.777Z,20.43
2019-02-19T05:23:04.614Z,20.30
2019-02-19T05:25:33.427Z,21.27
2019-02-19T05:28:02.227Z,22.40
2019-02-19T05:30:31.052Z,20.40
2019-02-19T05:32:59.820Z,20.70
2019-02-19T05:35:28.637Z,19.33
2019-02-19T05:37:57.519Z,20.07
2019-02-19T05:40:27.900Z,20.73
2019-02-19T05:42:56.698Z,17.83
2019-02-19T05:45:26.400Z,16.60
2019-02-19T05:47:55.262Z,17.20
2019-02-19T05:50:24.030Z,16.33
2019-02-19T05:52:52.828Z,15.80
2019-02-19T05:55:21.596Z,14.70
2019-02-19T05:57:50.416Z,15.53
2019-02-19T06:00:19.189Z,14.40
2019-02-19T06:02:47.999Z,16.13
2019-02-19T06:05:16.779Z,15.10
2019-02-19T06:07:45.567Z,15.47
2019-02-19T06:10:14.333Z,15.47
2019-02-19T06:12:43.118Z,14.97
2019-02-19T06:15:12.267Z,15.70
2019-02-19T06:17:41.060Z,14.27
2019-02-19T06:20:09.831Z,14.77
2019-02-19T06:22:40.276Z,16.00
2019-02-19T06:25:09.365Z,16.53
2019-02-19T06:27:38.224Z,17.37
2019-02-19T06:30:10.126Z,16.90
2019-02-19T06:32:38.920Z,17.47
2019-02-19T06:35:08.453Z,18.70
2019-02-19T06:37:37.249Z,17.43
2019-02-19T06:40:14.999Z,16.77
2019-02-19T06:42:43.806Z,17.07
2019-02-19T06:45:15.358Z,17.93
2019-02-19T06:47:44.162Z,16.90
2019-02-19T06:50:12.919Z,18.50
2019-02-19T06:52:41.698Z,17.90
2019-02-19T06:55:10.522Z,17.70
2019-02-19T06:57:39.281Z,17.10
2019-02-19T07:00:10.695Z,17.90
2019-02-19T07:02:41.153Z,17.63
2019-02-19T07:05:11.595Z,17.77
2019-02-19T07:07:40.368Z,17.43
2019-02-19T07:10:09.156Z,17.13
2019-02-19T07:12:37.911Z,17.87
2019-02-19T07:15:08.351Z,17.77
2019-02-19T07:17:37.182Z,17.33
2019-02-19T07:20:09.120Z,16.97
2019-02-19T07:22:37.970Z,18.47
2019-02-19T07:25:13.996Z,17.00
2019-02-19T07:27:42.763Z,18.77
2019-02-19T07:30:12.197Z,19.57
2019-02-19T07:32:40.973Z,17.50
2019-02-19T07:35:12.501Z,17.90
2019-02-19T07:37:42.304Z,18.60
2019-02-19T07:40:12.564Z,17.53
2019-02-19T07:42:41.366Z,18.33
2019-02-19T07:45:15.504Z,19.60
2019-02-19T07:47:45.356Z,19.87
2019-02-19T07:50:14.355Z,18.67
2019-02-19T07:52:44.815Z,20.70
2019-02-19T07:55:13.685Z,19.47
2019-02-19T07:57:42.937Z,19.23
2019-02-19T08:00:13.445Z,18.37
2019-02-19T08:02:43.654Z,18.83
2019-02-19T08:05:12.670Z,20.57
2019-02-19T08:07:42.873Z,18.90
2019-02-19T08:10:12.248Z,19.43
2019-02-19T08:12:42.728Z,19.57
2019-02-19T08:15:12.048Z,20.47
2019-02-19T08:17:42.268Z,19.23
2019-02-19T08:20:15.861Z,20.57
2019-02-19T08:22:41.600Z,20.20
2019-02-19T08:25:10.402Z,20.07
2019-02-19T08:27:39.317Z,19.80
2019-02-19T08:30:11.106Z,21.03
2019-02-19T08:32:39.845Z,21.60
2019-02-19T08:35:08.629Z,21.27
2019-02-19T08:37:37.400Z,20.73
2019-02-19T08:40:08.817Z,21.63
2019-02-19T08:42:37.646Z,21.70
2019-02-19T08:45:08.508Z,21.80
2019-02-19T08:47:42.723Z,22.53
2019-02-19T08:50:08.303Z,23.03
2019-02-19T08:52:37.238Z,22.60
2019-02-19T08:55:06.781Z,23.53
2019-02-19T08:57:35.576Z,24.27
2019-02-19T09:00:07.591Z,23.10
2019-02-19T09:02:36.474Z,24.50
2019-02-19T09:05:06.932Z,23.23
2019-02-19T09:07:35.724Z,25.00
2019-02-19T09:10:07.791Z,25.63
2019-02-19T09:12:36.582Z,24.23
2019-02-19T09:15:11.222Z,26.30
2019-02-19T09:17:40.433Z,27.47
2019-02-19T09:20:10.035Z,25.43
2019-02-19T09:22:38.835Z,26.43
2019-02-19T09:25:08.633Z,26.43
2019-02-19T09:27:38.535Z,27.20
2019-02-19T09:30:12.189Z,25.70
2019-02-19T09:32:40.990Z,26.93
2019-02-19T09:35:09.946Z,26.57
2019-02-19T09:37:38.811Z,25.00
2019-02-19T09:40:09.538Z,26.53
2019-02-19T09:42:38.353Z,25.60
2019-02-19T09:45:09.700Z,24.33
2019-02-19T09:47:38.498Z,23.47
2019-02-19T09:50:09.540Z,24.40
2019-02-19T09:52:38.315Z,24.23
2019-02-19T09:55:07.675Z,23.47
2019-02-19T09:57:36.524Z,23.63
2019-02-19T10:00:11.411Z,22.30
2019-02-19T10:02:40.167Z,23.30
2019-02-19T10:05:11.117Z,23.67
2019-02-19T10:07:39.892Z,23.40
2019-02-19T10:10:11.692Z,24.17
2019-02-19T10:12:40.476Z,23.70
2019-02-19T10:15:11.925Z,23.83
2019-02-19T10:17:40.702Z,23.70
2019-02-19T10:20:10.427Z,23.53
2019-02-19T10:22:39.189Z,24.00
2019-02-19T10:25:13.150Z,22.87
2019-02-19T10:27:41.913Z,20.93
2019-02-19T10:30:13.759Z,21.00
2019-02-19T10:32:42.546Z,20.60
2019-02-19T10:35:11.881Z,20.70
2019-02-19T10:37:40.664Z,20.50
2019-02-19T10:40:20.397Z,20.13
2019-02-19T10:42:49.275Z,19.27
2019-02-19T10:45:25.208Z,19.87
2019-02-19T10:47:54.082Z,20.13
2019-02-19T10:50:23.222Z,20.07
2019-02-19T10:52:52.810Z,22.77
2019-02-19T10:55:21.720Z,26.87
2019-02-19T10:57:51.138Z,19.33
2019-02-19T11:00:23.286Z,19.57
2019-02-19T11:02:52.222Z,18.17
2019-02-19T11:05:21.718Z,19.10
2019-02-19T11:07:50.656Z,18.97
2019-02-19T11:10:19.495Z,20.33
2019-02-19T11:12:49.876Z,18.57
2019-02-19T11:15:18.656Z,17.70
2019-02-19T11:17:47.519Z,17.90
2019-02-19T11:20:21.769Z,17.50
2019-02-19T11:22:52.342Z,16.83
2019-02-19T11:25:21.274Z,16.30
2019-02-19T11:27:51.581Z,17.77
2019-02-19T11:30:21.344Z,17.43
2019-02-19T11:32:51.362Z,17.20
2019-02-19T11:35:21.814Z,15.80
2019-02-19T11:37:50.812Z,16.13
2019-02-19T11:40:21.466Z,15.87
2019-02-19T11:42:50.302Z,15.70
2019-02-19T11:45:19.503Z,16.50
2019-02-19T11:47:49.001Z,16.10
2019-02-19T11:50:17.932Z,15.37
2019-02-19T11:52:46.903Z,14.67
2019-02-19T11:55:18.951Z,15.20
2019-02-19T11:57:47.810Z,14.43
2019-02-19T12:00:18.417Z,14.93
2019-02-19T12:02:47.271Z,14.77
2019-02-19T12:05:16.716Z,15.27
2019-02-19T12:07:45.668Z,15.03
2019-02-19T12:10:14.611Z,15.90
2019-02-19T12:12:44.494Z,14.73
2019-02-19T12:15:13.805Z,13.00
2019-02-19T12:17:42.600Z,14.10
2019-02-19T12:20:13.163Z,13.13
2019-02-19T12:22:41.975Z,14.37
2019-02-19T12:25:11.176Z,14.17
2019-02-19T12:27:39.962Z,15.63
2019-02-19T12:30:14.128Z,13.87
2019-02-19T12:32:42.920Z,13.50
2019-02-19T12:35:11.907Z,13.00
2019-02-19T12:37:40.683Z,12.87
2019-02-19T12:40:11.369Z,13.37
2019-02-19T12:42:40.152Z,12.33
2019-02-19T12:45:13.101Z,12.77
2019-02-19T12:47:43.234Z,12.77
2019-02-19T12:50:16.559Z,13.73
2019-02-19T12:52:45.401Z,12.50
2019-02-19T12:55:14.280Z,11.47
2019-02-19T12:57:43.170Z,12.50
2019-02-19T13:00:14.588Z,12.07
2019-02-19T13:02:44.167Z,11.70
2019-02-19T13:05:15.410Z,10.93
2019-02-19T13:07:44.286Z,11.13
2019-02-19T13:10:13.140Z,10.83
2019-02-19T13:12:42.321Z,10.23
2019-02-19T13:15:21.807Z,9.80
2019-02-19T13:17:50.586Z,9.40
2019-02-19T13:20:21.034Z,10.23
2019-02-19T13:22:51.409Z,10.70
2019-02-19T13:25:20.184Z,10.53
2019-02-19T13:27:49.019Z,10.40
2019-02-19T13:30:22.575Z,10.50
2019-02-19T13:32:51.596Z,9.93
2019-02-19T13:35:20.428Z,8.67
2019-02-19T13:37:50.912Z,9.33
2019-02-19T13:40:21.229Z,8.63
2019-02-19T13:42:50.024Z,6.77
2019-02-19T13:45:18.951Z,7.70
2019-02-19T13:47:49.390Z,11.97
2019-02-19T13:50:27.596Z,7.07
2019-02-19T13:53:13.209Z,8.13
2019-02-19T13:55:43.671Z,7.67
2019-02-19T13:58:12.475Z,7.60
2019-02-19T14:00:43.009Z,7.03
2019-02-19T14:03:11.855Z,7.30
2019-02-19T14:05:40.651Z,6.47
2019-02-19T14:08:14.689Z,7.50
2019-02-19T14:10:40.108Z,7.43
2019-02-19T14:13:10.961Z,7.07
2019-02-19T14:15:56.288Z,7.30
2019-02-19T14:18:26.810Z,6.53
2019-02-19T14:21:13.236Z,6.23
2019-02-19T14:24:00.243Z,6.43
2019-02-19T14:26:47.099Z,6.37
2019-02-19T14:29:34.071Z,6.50
2019-02-19T14:32:20.923Z,6.40
2019-02-19T14:35:09.888Z,6.83
2019-02-19T14:37:43.015Z,8.00
2019-02-19T14:40:28.447Z,7.43
2019-02-19T14:43:04.648Z,8.20
2019-02-19T14:45:50.384Z,7.03
2019-02-19T14:48:35.795Z,7.43
2019-02-19T14:51:18.429Z,7.70
2019-02-19T14:54:06.933Z,7.47
2019-02-19T14:56:52.363Z,8.30
2019-02-19T14:59:22.772Z,8.60
2019-02-19T15:02:09.237Z,8.17
2019-02-19T15:04:42.628Z,8.10
2019-02-19T15:07:24.572Z,8.23
2019-02-19T15:10:04.116Z,8.33
2019-02-19T15:12:46.296Z,7.73
2019-02-19T15:15:29.047Z,7.50
2019-02-19T15:18:02.141Z,7.93
2019-02-19T15:20:32.560Z,7.80
2019-02-19T15:23:02.980Z,7.27
2019-02-19T15:25:33.461Z,7.23
2019-02-19T15:28:15.615Z,6.33
2019-02-19T15:30:58.059Z,6.40
2019-02-19T15:33:28.444Z,7.50
2019-02-19T15:35:58.840Z,7.23
2019-02-19T15:38:34.991Z,7.60
2019-02-19T15:41:21.590Z,7.13
2019-02-19T15:43:51.993Z,6.90
2019-02-19T15:46:37.379Z,6.90
2019-02-19T15:49:16.685Z,7.00
2019-02-19T15:51:53.229Z,6.00
2019-02-19T15:54:32.669Z,6.50
2019-02-19T15:57:05.823Z,6.33
2019-02-19T15:59:36.238Z,6.30
2019-02-19T16:02:09.896Z,5.93
2019-02-19T16:04:58.676Z,6.10
2019-02-19T16:07:29.096Z,6.00
2019-02-19T16:10:02.438Z,6.30
2019-02-19T16:12:35.671Z,6.77
2019-02-19T16:15:11.470Z,6.53
2019-02-19T16:17:58.201Z,6.57
2019-02-19T16:20:28.584Z,6.50
2019-02-19T16:23:15.003Z,6.77
2019-02-19T16:25:48.374Z,6.40
2019-02-19T16:28:34.826Z,6.30
2019-02-19T16:31:05.255Z,7.50
2019-02-19T16:33:52.002Z,8.17
2019-02-19T16:36:22.403Z,8.77
2019-02-19T16:39:07.910Z,11.00
2019-02-19T16:41:41.226Z,8.77
2019-02-19T16:44:17.326Z,7.80
2019-02-19T16:46:47.735Z,7.03
2019-02-19T16:49:34.531Z,7.03
2019-02-19T16:52:13.938Z,7.40
2019-02-19T16:54:47.473Z,6.73
2019-02-19T16:57:20.755Z,7.10
2019-02-19T17:00:03.179Z,7.20
2019-02-19T17:02:42.511Z,6.70
2019-02-19T17:05:28.185Z,7.33
2019-02-19T17:07:58.592Z,7.90
2019-02-19T17:10:31.834Z,7.17
2019-02-19T17:13:07.818Z,7.73
2019-02-19T17:15:54.412Z,7.37
2019-02-19T17:18:31.083Z,7.73
2019-02-19T17:21:01.508Z,7.37
2019-02-19T17:23:43.916Z,7.80
2019-02-19T17:26:14.414Z,7.73
2019-02-19T17:29:01.013Z,7.63
2019-02-19T17:31:31.441Z,9.40
2019-02-19T17:34:05.021Z,8.40
2019-02-19T17:36:50.736Z,8.17
2019-02-19T17:39:30.041Z,7.97
2019-02-19T17:42:00.528Z,8.70
2019-02-19T17:44:49.067Z,8.90
2019-02-19T17:47:19.581Z,7.87
2019-02-19T17:49:58.781Z,8.33
2019-02-19T17:52:38.272Z,9.13
2019-02-19T17:55:08.655Z,7.80
2019-02-19T17:57:42.127Z,8.87
2019-02-19T18:00:13.421Z,9.03
2019-02-19T18:02:46.918Z,8.20
2019-02-19T18:05:29.650Z,8.73
2019-02-19T18:08:16.583Z,7.73
2019-02-19T18:10:59.052Z,8.37
2019-02-19T18:13:45.376Z,9.00
2019-02-19T18:16:27.883Z,7.80
2019-02-19T18:18:56.728Z,7.57
2019-02-19T18:21:25.476Z,7.83
2019-02-19T18:23:54.381Z,9.37
2019-02-19T18:26:23.140Z,8.67
2019-02-19T18:28:51.932Z,8.53
2019-02-19T18:31:20.704Z,8.90
2019-02-19T18:33:49.475Z,9.30
2019-02-19T18:36:18.252Z,9.20
2019-02-19T18:38:47.042Z,8.90
2019-02-19T18:41:15.862Z,10.33
2019-02-19T18:43:44.647Z,8.93
2019-02-19T18:46:13.398Z,8.20
2019-02-19T18:48:42.237Z,8.43
2019-02-19T18:51:11.029Z,8.73
2019-02-19T18:53:39.833Z,9.27
2019-02-19T18:56:08.669Z,8.00
2019-02-19T18:58:37.529Z,7.90
2019-02-19T19:01:06.296Z,8.40
2019-02-19T19:03:35.146Z,8.00
2019-02-19T19:06:03.971Z,7.73
2019-02-19T19:08:32.727Z,7.97
2019-02-19T19:11:01.691Z,6.37
2019-02-19T19:13:30.453Z,7.27
2019-02-19T19:15:59.275Z,6.77
2019-02-19T19:18:28.044Z,6.63
2019-02-19T19:20:56.824Z,6.53
2019-02-19T19:23:25.613Z,6.17
2019-02-19T19:25:54.424Z,5.90
2019-02-19T19:28:23.200Z,6.27
2019-02-19T19:30:52.044Z,6.53
2019-02-19T19:33:20.854Z,6.43
2019-02-19T19:35:49.632Z,5.83
2019-02-19T19:38:18.433Z,5.00
2019-02-19T19:40:47.300Z,5.63
2019-02-19T19:43:16.051Z,5.80
2019-02-19T19:45:44.866Z,5.10
2019-02-19T19:48:13.690Z,4.93
2019-02-19T19:50:42.574Z,4.87
2019-02-19T19:53:11.390Z,4.67
2019-02-19T19:55:40.205Z,5.07
2019-02-19T19:58:08.951Z,5.37
2019-02-19T20:00:37.762Z,4.73
2019-02-19T20:03:06.524Z,4.90
2019-02-19T20:05:35.290Z,5.53
2019-02-19T20:08:04.100Z,6.77
2019-02-19T20:10:32.941Z,5.70
2019-02-19T20:13:01.986Z,5.30
2019-02-19T20:15:30.754Z,5.37
2019-02-19T20:17:59.533Z,5.50
2019-02-19T20:20:28.313Z,5.17
2019-02-19T20:22:57.119Z,6.90
2019-02-19T20:25:25.890Z,9.03
2019-02-19T20:27:54.679Z,16.67
2019-02-19T20:30:23.442Z,12.17
2019-02-19T20:32:52.304Z,14.97
2019-02-19T20:35:21.080Z,7.27
2019-02-19T20:37:54.074Z,13.23
2019-02-19T20:40:20.406Z,12.83
2019-02-19T20:42:49.226Z,10.17
2019-02-19T20:45:17.998Z,10.70
2019-02-19T20:47:48.321Z,17.00
2019-02-19T20:50:17.187Z,16.20
2019-02-19T20:52:45.994Z,13.70
2019-02-19T20:55:14.761Z,21.23
2019-02-19T20:57:43.539Z,17.23
2019-02-19T21:00:15.616Z,16.77
2019-02-19T21:02:44.472Z,25.93
2019-02-19T21:05:13.271Z,36.27
2019-02-19T21:07:42.106Z,28.33
2019-02-19T21:10:13.624Z,20.73
2019-02-19T21:12:42.467Z,10.60
2019-02-19T21:15:11.275Z,9.07
2019-02-19T21:17:40.172Z,6.70
2019-02-19T21:20:10.710Z,6.07
2019-02-19T21:22:39.539Z,7.60
2019-02-19T21:25:09.436Z,10.33
2019-02-19T21:27:38.258Z,14.13
2019-02-19T21:30:12.272Z,27.90
2019-02-19T21:32:41.040Z,15.80
2019-02-19T21:35:10.123Z,22.70
2019-02-19T21:37:38.945Z,24.10
2019-02-19T21:40:10.543Z,25.87
2019-02-19T21:42:39.346Z,16.20
2019-02-19T21:45:10.098Z,13.53
2019-02-19T21:47:38.939Z,14.87
2019-02-19T21:50:15.587Z,17.13
2019-02-19T21:52:44.650Z,18.73
2019-02-19T21:55:13.513Z,14.77
2019-02-19T21:57:45.329Z,12.50
2019-02-19T22:00:18.684Z,9.67
2019-02-19T22:02:47.486Z,9.63
2019-02-19T22:05:16.323Z,13.03
2019-02-19T22:07:45.133Z,12.70
2019-02-19T22:10:14.538Z,14.30
2019-02-19T22:12:43.337Z,17.77
2019-02-19T22:15:13.418Z,15.63
2019-02-19T22:17:42.400Z,14.83
2019-02-19T22:20:24.439Z,12.73
2019-02-19T22:22:53.230Z,11.67
2019-02-19T22:25:24.701Z,11.27
2019-02-19T22:27:52.565Z,13.67
2019-02-19T22:30:21.343Z,11.40
2019-02-19T22:32:50.119Z,9.97
2019-02-19T22:35:18.928Z,8.93
2019-02-19T22:37:47.735Z,8.60
2019-02-19T22:40:16.508Z,10.63
2019-02-19T22:42:45.283Z,9.67
2019-02-19T22:45:14.049Z,8.67
2019-02-19T22:47:42.905Z,8.13
2019-02-19T22:50:11.765Z,8.20
2019-02-19T22:52:40.557Z,7.00
2019-02-19T22:55:26.470Z,6.43
2019-02-19T22:57:55.286Z,6.53
2019-02-19T23:00:34.400Z,6.43
2019-02-19T23:03:03.254Z,6.13
2019-02-19T23:05:31.983Z,6.07
2019-02-19T23:08:00.761Z,6.17
2019-02-19T23:10:29.595Z,6.47
2019-02-19T23:12:58.382Z,6.23
2019-02-19T23:15:27.131Z,6.37
2019-02-19T23:17:55.958Z,6.07
2019-02-19T23:20:24.712Z,6.33
2019-02-19T23:22:53.515Z,5.90
2019-02-19T23:25:22.274Z,6.50
2019-02-19T23:27:51.063Z,6.50
2019-02-19T23:30:19.859Z,6.47
2019-02-19T23:32:48.611Z,6.70
2019-02-19T23:35:19.031Z,6.67
2019-02-19T23:37:47.790Z,7.10
2019-02-19T23:40:16.591Z,7.07
2019-02-19T23:42:45.348Z,6.80
2019-02-19T23:45:14.135Z,7.30
2019-02-19T23:47:42.908Z,7.13
2019-02-19T23:50:11.740Z,7.57
2019-02-19T23:52:40.494Z,7.73
2019-02-19T23:55:09.269Z,8.27
2019-02-19T23:57:38.020Z,7.60
